createdAt,value
2023-05-14T00:01:14.370Z,102288.81
2023-05-14T00:03:19.594Z,102287.25
2023-05-14T00:05:27.338Z,102286.41
2023-05-14T00:07:33.127Z,102288.22
2023-05-14T00:09:38.153Z,102286.34
2023-05-14T00:11:43.069Z,102284.75
2023-05-14T00:13:49.314Z,102278.59
2023-05-14T00:15:55.423Z,102279.59
2023-05-14T00:18:03.619Z,102274.28
2023-05-14T00:20:12.334Z,102273.59
2023-05-14T00:22:18.853Z,102267.56
2023-05-14T00:24:23.972Z,102262.38
2023-05-14T00:26:31.869Z,102267.78
2023-05-14T00:28:37.080Z,102265.25
2023-05-14T00:30:42.799Z,102264.44
2023-05-14T00:32:51.379Z,102258.25
2023-05-14T00:34:59.254Z,102260.97
2023-05-14T00:37:04.158Z,102254.06
2023-05-14T00:39:09.033Z,102252.38
2023-05-14T00:41:14.486Z,102253.91
2023-05-14T00:43:19.554Z,102244.41
2023-05-14T00:45:25.059Z,102249.66
2023-05-14T00:47:30.798Z,102254.09
2023-05-14T00:49:36.109Z,102259.44
2023-05-14T00:51:47.097Z,102254.22
2023-05-14T00:53:53.333Z,102253.47
2023-05-14T00:56:01.139Z,102249.13
2023-05-14T00:58:07.554Z,102255.38
2023-05-14T01:00:14.491Z,102249.28
2023-05-14T01:02:19.388Z,102253.75
2023-05-14T01:04:27.097Z,102254.69
2023-05-14T01:06:42.091Z,102247.72
2023-05-14T01:09:00.226Z,102242.66
2023-05-14T01:11:09.742Z,102241.78
2023-05-14T01:13:21.438Z,102249.78
2023-05-14T01:15:30.068Z,102249.84
2023-05-14T01:17:43.232Z,102246.38
2023-05-14T01:19:54.846Z,102244.66
2023-05-14T01:22:02.445Z,102247.34
2023-05-14T01:24:08.233Z,102241.25
2023-05-14T01:26:13.120Z,102250.94
2023-05-14T01:28:23.996Z,102255.47
2023-05-14T01:30:34.897Z,102256.50
2023-05-14T01:32:42.606Z,102248.63
2023-05-14T01:34:50.567Z,102248.69
2023-05-14T01:36:56.823Z,102253.09
2023-05-14T01:39:05.273Z,102243.50
2023-05-14T01:41:10.570Z,102240.81
2023-05-14T01:43:16.242Z,102237.31
2023-05-14T01:45:23.014Z,102234.69
2023-05-14T01:47:27.986Z,102233.84
2023-05-14T01:49:33.180Z,102231.22
2023-05-14T01:51:38.225Z,102223.31
2023-05-14T01:53:43.062Z,102230.38
2023-05-14T01:55:53.205Z,102220.81
2023-05-14T01:57:58.218Z,102226.06
2023-05-14T02:00:04.347Z,102215.56
2023-05-14T02:02:09.415Z,102216.38
2023-05-14T02:04:14.436Z,102213.66
2023-05-14T02:06:19.457Z,102214.66
2023-05-14T02:08:26.306Z,102206.81
2023-05-14T02:10:31.323Z,102205.97
2023-05-14T02:12:38.968Z,102206.91
2023-05-14T02:14:44.295Z,102209.59
2023-05-14T02:16:49.329Z,102213.13
2023-05-14T02:18:54.560Z,102214.00
2023-05-14T02:20:59.598Z,102211.34
2023-05-14T02:23:04.584Z,102220.94
2023-05-14T02:25:11.501Z,102219.19
2023-05-14T02:27:20.115Z,102209.50
2023-05-14T02:29:27.765Z,102212.22
2023-05-14T02:31:33.313Z,102214.06
2023-05-14T02:33:38.559Z,102207.94
2023-05-14T02:35:44.188Z,102213.22
2023-05-14T02:37:51.534Z,102205.31
2023-05-14T02:39:56.662Z,102204.44
2023-05-14T02:42:01.619Z,102202.72
2023-05-14T02:44:06.623Z,102205.38
2023-05-14T02:46:14.446Z,102202.75
2023-05-14T02:48:19.481Z,102193.13
2023-05-14T02:50:25.269Z,102199.31
2023-05-14T02:52:30.693Z,102198.50
2023-05-14T02:54:35.839Z,102196.78
2023-05-14T02:56:41.303Z,102199.44
2023-05-14T02:58:46.309Z,102205.56
2023-05-14T03:00:51.276Z,102204.69
2023-05-14T03:02:59.867Z,102202.09
2023-05-14T03:05:05.266Z,102202.97
2023-05-14T03:07:10.687Z,102200.34
2023-05-14T03:09:15.742Z,102193.19
2023-05-14T03:11:21.052Z,102193.25
2023-05-14T03:13:27.371Z,102194.19
2023-05-14T03:15:32.804Z,102200.34
2023-05-14T03:17:39.839Z,102197.78
2023-05-14T03:19:51.214Z,102201.22
2023-05-14T03:21:56.366Z,102192.47
2023-05-14T03:24:01.284Z,102192.53
2023-05-14T03:26:06.610Z,102189.88
2023-05-14T03:28:11.747Z,102186.34
2023-05-14T03:30:17.449Z,102189.84
2023-05-14T03:32:22.900Z,102187.22
2023-05-14T03:34:28.452Z,102184.59
2023-05-14T03:36:36.849Z,102173.16
2023-05-14T03:38:41.941Z,102171.41
2023-05-14T03:40:48.547Z,102176.69
2023-05-14T03:42:53.526Z,102174.94
2023-05-14T03:45:01.584Z,102171.41
2023-05-14T03:47:06.864Z,102181.03
2023-05-14T03:49:11.827Z,102174.13
2023-05-14T03:51:16.688Z,102172.25
2023-05-14T03:53:27.378Z,102172.31
2023-05-14T03:55:32.403Z,102172.31
2023-05-14T03:57:40.426Z,102165.34
2023-05-14T03:59:45.891Z,102179.41
2023-05-14T04:01:50.960Z,102174.16
2023-05-14T04:03:56.293Z,102176.78
2023-05-14T04:06:01.275Z,102174.19
2023-05-14T04:08:06.259Z,102173.34
2023-05-14T04:10:14.592Z,102176.00
2023-05-14T04:12:19.574Z,102173.41
2023-05-14T04:14:27.589Z,102178.66
2023-05-14T04:16:34.180Z,102175.13
2023-05-14T04:18:39.183Z,102172.44
2023-05-14T04:20:44.464Z,102180.31
2023-05-14T04:22:49.495Z,102182.00
2023-05-14T04:24:54.785Z,102176.75
2023-05-14T04:27:02.687Z,102183.78
2023-05-14T04:29:07.736Z,102181.97
2023-05-14T04:31:12.687Z,102183.63
2023-05-14T04:33:19.315Z,102183.63
2023-05-14T04:35:26.513Z,102178.31
2023-05-14T04:37:31.336Z,102176.53
2023-05-14T04:39:36.667Z,102177.44
2023-05-14T04:41:42.911Z,102182.63
2023-05-14T04:43:52.662Z,102181.72
2023-05-14T04:45:57.809Z,102179.06
2023-05-14T04:48:03.096Z,102172.88
2023-05-14T04:50:10.049Z,102179.84
2023-05-14T04:52:15.771Z,102178.97
2023-05-14T04:54:21.012Z,102173.66
2023-05-14T04:56:26.346Z,102181.53
2023-05-14T04:58:34.774Z,102178.84
2023-05-14T05:00:43.154Z,102174.50
2023-05-14T05:02:49.253Z,102180.50
2023-05-14T05:04:54.502Z,102173.34
2023-05-14T05:06:59.720Z,102174.09
2023-05-14T05:09:05.036Z,102178.41
2023-05-14T05:11:10.365Z,102183.63
2023-05-14T05:13:17.590Z,102191.22
2023-05-14T05:15:25.246Z,102185.81
2023-05-14T05:17:34.223Z,102196.50
2023-05-14T05:19:43.800Z,102203.47
2023-05-14T05:21:49.652Z,102194.47
2023-05-14T05:23:54.830Z,102196.25
2023-05-14T05:25:59.836Z,102190.00
2023-05-14T05:28:04.798Z,102204.78
2023-05-14T05:30:11.386Z,102193.41
2023-05-14T05:32:16.971Z,102197.56
2023-05-14T05:34:25.184Z,102207.41
2023-05-14T05:36:30.322Z,102204.88
2023-05-14T05:38:35.366Z,102211.19
2023-05-14T05:40:40.758Z,102203.22
2023-05-14T05:42:45.988Z,102201.47
2023-05-14T05:44:51.215Z,102203.28
2023-05-14T05:46:57.491Z,102203.94
2023-05-14T05:49:02.656Z,102209.03
2023-05-14T05:51:10.439Z,102203.53
2023-05-14T05:53:16.936Z,102206.50
2023-05-14T05:55:25.165Z,102203.88
2023-05-14T05:57:30.194Z,102201.63
2023-05-14T05:59:35.378Z,102203.41
2023-05-14T06:01:44.673Z,102210.38
2023-05-14T06:03:49.728Z,102211.31
2023-05-14T06:05:55.154Z,102210.50
2023-05-14T06:08:02.663Z,102211.50
2023-05-14T06:10:08.849Z,102218.09
2023-05-14T06:12:14.163Z,102215.38
2023-05-14T06:14:26.631Z,102213.41
2023-05-14T06:16:31.982Z,102225.34
2023-05-14T06:18:37.181Z,102217.50
2023-05-14T06:20:42.164Z,102213.25
2023-05-14T06:22:47.139Z,102220.72
2023-05-14T06:24:55.085Z,102215.25
2023-05-14T06:27:00.007Z,102218.53
2023-05-14T06:29:04.946Z,102217.72
2023-05-14T06:31:09.878Z,102213.72
2023-05-14T06:33:16.049Z,102219.50
2023-05-14T06:35:21.694Z,102228.72
2023-05-14T06:37:26.620Z,102231.97
2023-05-14T06:39:31.540Z,102220.56
2023-05-14T06:41:39.043Z,102224.69
2023-05-14T06:43:44.163Z,102227.91
2023-05-14T06:45:52.286Z,102229.31
2023-05-14T06:47:57.281Z,102231.19
2023-05-14T06:50:02.408Z,102222.63
2023-05-14T06:52:08.078Z,102232.41
2023-05-14T06:54:13.050Z,102215.47
2023-05-14T06:56:19.309Z,102209.63
2023-05-14T06:58:26.883Z,102214.06
2023-05-14T07:00:31.809Z,102210.88
2023-05-14T07:02:39.193Z,102204.41
2023-05-14T07:04:44.406Z,102211.16
2023-05-14T07:06:49.668Z,102209.94
2023-05-14T07:08:55.006Z,102209.53
2023-05-14T07:11:00.296Z,102203.19
2023-05-14T07:13:05.370Z,102200.50
2023-05-14T07:15:14.504Z,102203.66
2023-05-14T07:17:19.647Z,102198.53
2023-05-14T07:19:25.214Z,102193.50
2023-05-14T07:21:30.238Z,102190.88
2023-05-14T07:23:36.515Z,102200.06
2023-05-14T07:25:41.794Z,102202.34
2023-05-14T07:27:46.838Z,102204.34
2023-05-14T07:29:52.739Z,102198.19
2023-05-14T07:32:00.265Z,102195.22
2023-05-14T07:34:05.189Z,102192.41
2023-05-14T07:36:11.057Z,102199.38
2023-05-14T07:38:16.075Z,102190.25
2023-05-14T07:40:21.231Z,102181.97
2023-05-14T07:42:36.055Z,102192.94
2023-05-14T07:44:42.298Z,102191.47
2023-05-14T07:46:47.356Z,102186.94
2023-05-14T07:48:55.361Z,102188.19
2023-05-14T07:51:00.176Z,102188.53
2023-05-14T07:53:05.193Z,102192.72
2023-05-14T07:55:11.088Z,102185.94
2023-05-14T07:57:15.993Z,102184.94
2023-05-14T07:59:21.125Z,102189.50
2023-05-14T08:01:26.687Z,102194.97
2023-05-14T08:03:31.853Z,102170.59
2023-05-14T08:05:39.523Z,102177.13
2023-05-14T08:07:44.545Z,102190.16
2023-05-14T08:09:49.584Z,102182.31
2023-05-14T08:11:56.224Z,102181.91
2023-05-14T08:14:01.200Z,102180.59
2023-05-14T08:16:06.322Z,102177.88
2023-05-14T08:18:11.403Z,102171.03
2023-05-14T08:20:16.613Z,102169.59
2023-05-14T08:22:24.880Z,102167.75
2023-05-14T08:24:30.251Z,102169.31
2023-05-14T08:26:35.209Z,102168.44
2023-05-14T08:28:40.068Z,102179.19
2023-05-14T08:30:46.098Z,102172.81
2023-05-14T08:32:51.343Z,102165.38
2023-05-14T08:34:57.537Z,102168.16
2023-05-14T08:37:02.578Z,102169.22
2023-05-14T08:39:10.788Z,102168.06
2023-05-14T08:41:21.224Z,102168.13
2023-05-14T08:43:30.767Z,102168.72
2023-05-14T08:45:38.366Z,102168.72
2023-05-14T08:47:43.475Z,102161.63
2023-05-14T08:49:55.160Z,102162.97
2023-05-14T08:52:00.952Z,102156.94
2023-05-14T08:54:06.488Z,102146.09
2023-05-14T08:56:14.826Z,102147.31
2023-05-14T08:58:22.673Z,102146.94
2023-05-14T09:00:27.666Z,102146.47
2023-05-14T09:02:34.776Z,102147.44
2023-05-14T09:04:40.396Z,102149.72
2023-05-14T09:06:47.045Z,102143.72
2023-05-14T09:08:52.812Z,102136.31
2023-05-14T09:10:57.599Z,102140.19
2023-05-14T09:13:05.172Z,102137.63
2023-05-14T09:15:14.520Z,102132.88
2023-05-14T09:17:19.744Z,102132.31
2023-05-14T09:19:27.358Z,102125.03
2023-05-14T09:21:35.716Z,102124.66
2023-05-14T09:23:46.120Z,102122.53
2023-05-14T09:25:51.648Z,102122.47
2023-05-14T09:27:58.635Z,102126.66
2023-05-14T09:30:17.631Z,102118.72
2023-05-14T09:32:23.021Z,102120.88
2023-05-14T09:34:30.749Z,102126.22
2023-05-14T09:36:38.560Z,102122.28
2023-05-14T09:38:43.709Z,102120.41
2023-05-14T09:40:50.110Z,102120.91
2023-05-14T09:42:57.656Z,102120.03
2023-05-14T09:45:04.940Z,102120.34
2023-05-14T09:47:12.632Z,102121.00
2023-05-14T09:49:20.709Z,102124.09
2023-05-14T09:51:26.590Z,102124.22
2023-05-14T09:53:32.902Z,102116.06
2023-05-14T09:55:39.417Z,102120.91
2023-05-14T09:57:45.492Z,102111.97
2023-05-14T09:59:50.563Z,102113.38
2023-05-14T10:01:56.035Z,102113.41
2023-05-14T10:04:05.495Z,102112.41
2023-05-14T10:06:11.233Z,102117.91
2023-05-14T10:08:22.894Z,102109.38
2023-05-14T10:10:32.208Z,102111.00
2023-05-14T10:12:42.259Z,102113.25
2023-05-14T10:14:53.792Z,102104.38
2023-05-14T10:17:02.156Z,102105.84
2023-05-14T10:19:13.328Z,102108.78
2023-05-14T10:21:23.614Z,102106.63
2023-05-14T10:23:31.283Z,102103.53
2023-05-14T10:25:37.082Z,102104.97
2023-05-14T10:27:42.772Z,102103.94
2023-05-14T10:29:56.960Z,102104.66
2023-05-14T10:32:01.842Z,102099.91
2023-05-14T10:34:07.216Z,102101.34
2023-05-14T10:36:16.091Z,102099.22
2023-05-14T10:38:25.112Z,102090.22
2023-05-14T10:40:31.452Z,102095.13
2023-05-14T10:42:40.958Z,102090.25
2023-05-14T10:44:54.595Z,102090.50
2023-05-14T10:47:00.115Z,102087.59
2023-05-14T10:49:05.230Z,102076.03
2023-05-14T10:51:11.969Z,102087.19
2023-05-14T10:53:19.809Z,102077.84
2023-05-14T10:55:28.980Z,102074.41
2023-05-14T10:57:35.389Z,102071.78
2023-05-14T10:59:42.950Z,102070.09
2023-05-14T11:01:51.454Z,102073.53
2023-05-14T11:03:56.747Z,102068.88
2023-05-14T11:06:05.887Z,102069.84
2023-05-14T11:08:11.947Z,102069.53
2023-05-14T11:10:28.790Z,102054.47
2023-05-14T11:12:34.585Z,102065.47
2023-05-14T11:14:39.672Z,102067.63
2023-05-14T11:16:45.744Z,102055.78
2023-05-14T11:18:50.786Z,102057.53
2023-05-14T11:20:55.979Z,102058.50
2023-05-14T11:23:00.905Z,102057.88
2023-05-14T11:25:06.605Z,102055.81
2023-05-14T11:27:14.514Z,102054.16
2023-05-14T11:29:19.895Z,102052.81
2023-05-14T11:31:27.067Z,102043.81
2023-05-14T11:33:35.196Z,102042.66
2023-05-14T11:35:42.335Z,102040.44
2023-05-14T11:37:53.154Z,102034.44
2023-05-14T11:40:02.021Z,102034.13
2023-05-14T11:42:07.962Z,102026.16
2023-05-14T11:44:16.771Z,102028.22
2023-05-14T11:46:24.560Z,102030.97
2023-05-14T11:48:29.858Z,102025.56
2023-05-14T11:50:38.688Z,102020.13
2023-05-14T11:52:45.764Z,102017.97
2023-05-14T11:54:52.670Z,102027.06
2023-05-14T11:56:58.927Z,102021.22
2023-05-14T11:59:04.034Z,102023.78
2023-05-14T12:01:18.505Z,102010.94
2023-05-14T12:03:26.757Z,102014.16
2023-05-14T12:05:32.047Z,102017.41
2023-05-14T12:07:36.968Z,102015.09
2023-05-14T12:09:45.310Z,102015.00
2023-05-14T12:11:52.206Z,102018.03
2023-05-14T12:13:57.086Z,102005.84
2023-05-14T12:16:03.274Z,102002.78
2023-05-14T12:18:24.146Z,102005.72
2023-05-14T12:20:33.200Z,102018.31
2023-05-14T12:22:38.217Z,102005.72
2023-05-14T12:24:43.254Z,101998.09
2023-05-14T12:26:49.943Z,102005.84
2023-05-14T12:29:02.557Z,102002.78
2023-05-14T12:31:07.593Z,102002.88
2023-05-14T12:33:16.185Z,102001.63
2023-05-14T12:35:23.379Z,102001.38
2023-05-14T12:37:31.475Z,101997.06
2023-05-14T12:39:41.053Z,102001.66
2023-05-14T12:41:46.862Z,101998.13
2023-05-14T12:43:55.869Z,101993.56
2023-05-14T12:46:00.871Z,101985.75
2023-05-14T12:48:06.252Z,101989.38
2023-05-14T12:50:14.943Z,101983.13
2023-05-14T12:52:36.173Z,101987.97
2023-05-14T12:54:43.763Z,101988.28
2023-05-14T12:56:48.642Z,101985.06
2023-05-14T12:58:53.717Z,101992.47
2023-05-14T13:00:58.626Z,101986.03
2023-05-14T13:03:03.658Z,101981.47
2023-05-14T13:05:09.063Z,101977.63
2023-05-14T13:07:16.788Z,101981.34
2023-05-14T13:09:23.591Z,101981.63
2023-05-14T13:11:32.584Z,101978.41
2023-05-14T13:13:38.716Z,101984.28
2023-05-14T13:15:43.564Z,101978.00
2023-05-14T13:17:48.814Z,101983.34
2023-05-14T13:19:53.783Z,101981.84
2023-05-14T13:21:58.529Z,101984.50
2023-05-14T13:24:06.595Z,101983.13
2023-05-14T13:26:11.789Z,101983.66
2023-05-14T13:28:16.928Z,101991.50
2023-05-14T13:30:22.819Z,101995.75
2023-05-14T13:32:29.246Z,101990.31
2023-05-14T13:34:34.285Z,101985.31
2023-05-14T13:36:41.031Z,101989.81
2023-05-14T13:38:46.171Z,101982.81
2023-05-14T13:40:56.821Z,101991.28
2023-05-14T13:43:03.383Z,101987.91
2023-05-14T13:45:11.904Z,101985.81
2023-05-14T13:47:17.671Z,101993.28
2023-05-14T13:49:22.971Z,101998.59
2023-05-14T13:51:28.208Z,101987.59
2023-05-14T13:53:33.504Z,101988.91
2023-05-14T13:55:38.798Z,101996.34
2023-05-14T13:57:46.542Z,101984.63
2023-05-14T13:59:52.274Z,101982.84
2023-05-14T14:01:57.793Z,101988.78
2023-05-14T14:04:03.590Z,101989.88
2023-05-14T14:06:08.794Z,101996.16
2023-05-14T14:10:26.766Z,101994.09
2023-05-14T14:12:32.114Z,101992.59
2023-05-14T14:14:39.700Z,101988.59
2023-05-14T14:16:44.816Z,101988.78
2023-05-14T14:18:50.598Z,101992.31
2023-05-14T14:20:55.688Z,101978.47
2023-05-14T14:23:00.574Z,101977.16
2023-05-14T14:25:07.978Z,101985.66
2023-05-14T14:27:14.236Z,101979.31
2023-05-14T14:29:21.228Z,101985.47
2023-05-14T14:31:32.191Z,101984.72
2023-05-14T14:33:37.138Z,101990.47
2023-05-14T14:35:42.182Z,101988.19
2023-05-14T14:37:49.954Z,101987.63
2023-05-14T14:39:55.297Z,101987.81
2023-05-14T14:42:00.366Z,101984.66
2023-05-14T14:44:05.897Z,101980.72
2023-05-14T14:46:11.358Z,101983.38
2023-05-14T14:48:34.482Z,101986.31
2023-05-14T14:50:39.490Z,101982.03
2023-05-14T14:52:49.085Z,101977.72
2023-05-14T14:54:54.292Z,101978.50
2023-05-14T14:56:59.610Z,101981.75
2023-05-14T14:59:04.657Z,101981.50
2023-05-14T15:01:09.842Z,101971.78
2023-05-14T15:03:15.317Z,101978.50
2023-05-14T15:05:24.228Z,101979.19
2023-05-14T15:07:33.180Z,101970.09
2023-05-14T15:09:38.208Z,101973.09
2023-05-14T15:11:43.465Z,101975.09
2023-05-14T15:13:49.102Z,101975.22
2023-05-14T15:15:54.966Z,101968.41
2023-05-14T15:18:00.330Z,101970.59
2023-05-14T15:20:06.181Z,101968.47
2023-05-14T15:22:13.727Z,101966.91
2023-05-14T15:24:24.369Z,101965.09
2023-05-14T15:26:31.835Z,101966.91
2023-05-14T15:28:36.930Z,101962.38
2023-05-14T15:30:41.940Z,101958.03
2023-05-14T15:32:48.747Z,101964.75
2023-05-14T15:34:54.043Z,101951.47
2023-05-14T15:36:58.986Z,101960.34
2023-05-14T15:39:06.598Z,101951.47
2023-05-14T15:41:19.310Z,101965.09
2023-05-14T15:43:24.514Z,101958.28
2023-05-14T15:45:31.485Z,101956.63
2023-05-14T15:47:36.966Z,101964.22
2023-05-14T15:49:41.981Z,101959.00
2023-05-14T15:51:47.122Z,101955.16
2023-05-14T15:53:53.297Z,101953.91
2023-05-14T15:56:01.080Z,101951.97
2023-05-14T15:58:06.573Z,101955.00
2023-05-14T16:00:13.090Z,101963.59
2023-05-14T16:02:21.447Z,101962.88
2023-05-14T16:04:27.045Z,101962.97
2023-05-14T16:06:32.520Z,101962.25
2023-05-14T16:08:37.918Z,101958.59
2023-05-14T16:10:45.295Z,101962.22
2023-05-14T16:12:54.031Z,101960.78
2023-05-14T16:15:00.274Z,101963.38
2023-05-14T16:17:05.542Z,101962.13
2023-05-14T16:19:10.650Z,101963.47
2023-05-14T16:21:15.700Z,101971.34
2023-05-14T16:23:20.991Z,101963.81
2023-05-14T16:25:28.513Z,101963.88
2023-05-14T16:27:33.881Z,101960.16
2023-05-14T16:29:41.547Z,101961.28
2023-05-14T16:31:46.722Z,101960.66
2023-05-14T16:33:51.825Z,101962.16
2023-05-14T16:35:56.842Z,101959.84
2023-05-14T16:38:02.125Z,101955.63
2023-05-14T16:40:09.702Z,101956.69
2023-05-14T16:42:14.974Z,101950.19
2023-05-14T16:44:20.972Z,101955.69
2023-05-14T16:46:32.567Z,101955.63
2023-05-14T16:48:38.448Z,101950.91
2023-05-14T16:50:43.885Z,101957.16
2023-05-14T16:52:49.502Z,101966.81
2023-05-14T16:54:56.703Z,101961.91
2023-05-14T16:57:01.705Z,101954.78
2023-05-14T16:59:07.237Z,101955.47
2023-05-14T17:01:12.882Z,101952.75
2023-05-14T17:03:20.727Z,101949.06
2023-05-14T17:05:28.704Z,101947.84
2023-05-14T17:07:34.289Z,101951.63
2023-05-14T17:09:39.208Z,101958.84
2023-05-14T17:11:44.201Z,101960.63
2023-05-14T17:13:52.014Z,101958.09
2023-05-14T17:15:57.147Z,101955.94
2023-05-14T17:18:02.231Z,101949.53
2023-05-14T17:20:11.010Z,101954.97
2023-05-14T17:22:16.089Z,101953.03
2023-05-14T17:24:21.170Z,101956.41
2023-05-14T17:26:26.610Z,101953.16
2023-05-14T17:28:31.786Z,101958.06
2023-05-14T17:30:37.100Z,101957.75
2023-05-14T17:32:42.170Z,101959.44
2023-05-14T17:34:47.359Z,101954.09
2023-05-14T17:36:55.275Z,101953.50
2023-05-14T17:39:00.237Z,101955.38
2023-05-14T17:41:05.319Z,101956.06
2023-05-14T17:43:11.285Z,101955.66
2023-05-14T17:45:20.930Z,101955.22
2023-05-14T17:47:26.785Z,101949.59
2023-05-14T17:49:32.011Z,101947.63
2023-05-14T17:51:37.224Z,101947.91
2023-05-14T17:53:44.866Z,101947.66
2023-05-14T17:55:51.089Z,101948.22
2023-05-14T17:57:58.610Z,101953.53
2023-05-14T18:00:05.070Z,101943.53
2023-05-14T18:02:10.102Z,101943.50
2023-05-14T18:04:15.470Z,101953.53
2023-05-14T18:06:21.486Z,101947.94
2023-05-14T18:08:26.753Z,101951.22
2023-05-14T18:10:34.337Z,101947.91
2023-05-14T18:12:39.266Z,101947.75
2023-05-14T18:14:45.699Z,101957.22
2023-05-14T18:16:51.563Z,101955.81
2023-05-14T18:18:56.775Z,101954.06
2023-05-14T18:21:01.765Z,101964.81
2023-05-14T18:23:06.879Z,101961.53
2023-05-14T18:25:13.127Z,101962.06
2023-05-14T18:27:20.927Z,101956.44
2023-05-14T18:29:28.474Z,101952.47
2023-05-14T18:31:33.486Z,101949.06
2023-05-14T18:33:38.587Z,101954.38
2023-05-14T18:35:45.128Z,101953.81
2023-05-14T18:37:50.305Z,101949.06
2023-05-14T18:39:55.370Z,101966.72
2023-05-14T18:42:00.313Z,101957.78
2023-05-14T18:44:08.029Z,101962.94
2023-05-14T18:46:12.935Z,101968.31
2023-05-14T18:48:21.094Z,101968.50
2023-05-14T18:50:26.541Z,101964.88
2023-05-14T18:52:32.564Z,101970.84
2023-05-14T18:54:38.735Z,101966.53
2023-05-14T18:56:46.795Z,101968.88
2023-05-14T18:58:55.286Z,101974.22
2023-05-14T19:01:02.648Z,101973.81
2023-05-14T19:03:07.787Z,101974.72
2023-05-14T19:05:16.248Z,101969.63
2023-05-14T19:07:21.546Z,101971.78
2023-05-14T19:09:26.976Z,101965.81
2023-05-14T19:11:32.077Z,101974.75
2023-05-14T19:13:37.118Z,101983.59
2023-05-14T19:15:42.257Z,101981.88
2023-05-14T19:17:50.652Z,101977.66
2023-05-14T19:19:58.931Z,101980.53
2023-05-14T19:22:04.162Z,101978.59
2023-05-14T19:24:09.810Z,101965.00
2023-05-14T19:26:14.898Z,101970.94
2023-05-14T19:28:21.014Z,101972.19
2023-05-14T19:30:28.813Z,101972.91
2023-05-14T19:32:34.027Z,101970.09
2023-05-14T19:34:41.784Z,101975.63
2023-05-14T19:36:46.856Z,101978.22
2023-05-14T19:39:00.796Z,101974.75
2023-05-14T19:41:05.844Z,101971.97
2023-05-14T19:43:12.059Z,101964.00
2023-05-14T19:45:19.820Z,101970.00
2023-05-14T19:47:25.077Z,101959.28
2023-05-14T19:49:30.250Z,101961.75
2023-05-14T19:51:38.169Z,101956.69
2023-05-14T19:53:43.391Z,101955.75
2023-05-14T19:55:48.949Z,101954.31
2023-05-14T19:57:53.875Z,101957.97
2023-05-14T19:59:59.386Z,101956.38
2023-05-14T20:02:05.018Z,101953.91
2023-05-14T20:04:10.891Z,101955.75
2023-05-14T20:06:16.022Z,101951.44
2023-05-14T20:08:25.153Z,101952.03
2023-05-14T20:10:31.006Z,101959.00
2023-05-14T20:12:36.139Z,101961.72
2023-05-14T20:14:41.901Z,101965.25
2023-05-14T20:16:47.207Z,101964.31
2023-05-14T20:18:56.623Z,101960.94
2023-05-14T20:21:01.903Z,101962.81
2023-05-14T20:23:07.065Z,101960.34
2023-05-14T20:25:14.874Z,101962.13
2023-05-14T20:27:20.535Z,101964.78
2023-05-14T20:29:27.722Z,101972.72
2023-05-14T20:31:32.907Z,101965.75
2023-05-14T20:33:38.363Z,101966.84
2023-05-14T20:35:44.342Z,101969.38
2023-05-14T20:37:50.547Z,101967.63
2023-05-14T20:39:56.379Z,101958.91
2023-05-14T20:42:04.100Z,101964.16
2023-05-14T20:44:09.052Z,101959.03
2023-05-14T20:46:14.136Z,101959.06
2023-05-14T20:48:21.578Z,101953.63
2023-05-14T20:50:27.751Z,101949.19
2023-05-14T20:52:33.360Z,101953.50
2023-05-14T20:54:38.346Z,101958.88
2023-05-14T20:56:43.469Z,101957.38
2023-05-14T20:58:51.324Z,101962.69
2023-05-14T21:00:58.028Z,101955.66
2023-05-14T21:03:04.255Z,101950.50
2023-05-14T21:05:10.368Z,101949.69
2023-05-14T21:07:15.400Z,101947.00
2023-05-14T21:09:21.249Z,101936.50
2023-05-14T21:11:29.094Z,101935.50
2023-05-14T21:13:34.076Z,101940.72
2023-05-14T21:15:41.763Z,101938.25
2023-05-14T21:17:46.783Z,101941.81
2023-05-14T21:19:54.848Z,101940.00
2023-05-14T21:22:00.096Z,101934.63
2023-05-14T21:24:05.227Z,101944.16
2023-05-14T21:26:10.561Z,101937.97
2023-05-14T21:28:15.746Z,101933.47
2023-05-14T21:30:23.096Z,101938.81
2023-05-14T21:32:30.995Z,101940.75
2023-05-14T21:34:36.024Z,101942.72
2023-05-14T21:36:41.385Z,101927.06
2023-05-14T21:38:46.689Z,101925.31
2023-05-14T21:40:52.050Z,101920.94
2023-05-14T21:42:57.087Z,101922.56
2023-05-14T21:45:02.514Z,101922.63
2023-05-14T21:47:08.163Z,101918.22
2023-05-14T21:49:16.152Z,101920.75
2023-05-14T21:51:21.298Z,101929.66
2023-05-14T21:53:26.656Z,101925.56
2023-05-14T21:55:32.028Z,101929.09
2023-05-14T21:57:37.204Z,101929.97
2023-05-14T21:59:42.229Z,101917.78
2023-05-14T22:02:05.516Z,101918.69
2023-05-14T22:04:12.178Z,101921.34
2023-05-14T22:06:21.424Z,101923.94
2023-05-14T22:08:27.619Z,101921.34
2023-05-14T22:10:33.844Z,101918.72
2023-05-14T22:12:38.851Z,101917.00
2023-05-14T22:14:43.844Z,101917.00
2023-05-14T22:16:51.662Z,101912.59
2023-05-14T22:18:56.732Z,101916.16
2023-05-14T22:21:01.708Z,101911.75
2023-05-14T22:23:09.431Z,101910.00
2023-05-14T22:25:14.428Z,101905.56
2023-05-14T22:27:19.505Z,101906.41
2023-05-14T22:29:25.275Z,101889.81
2023-05-14T22:31:30.374Z,101896.88
2023-05-14T22:33:36.308Z,101908.34
2023-05-14T22:35:41.818Z,101896.16
2023-05-14T22:37:46.926Z,101896.22
2023-05-14T22:39:55.118Z,101894.38
2023-05-14T22:42:00.268Z,101886.50
2023-05-14T22:44:05.216Z,101892.50
2023-05-14T22:46:10.105Z,101883.00
2023-05-14T22:48:15.233Z,101888.25
2023-05-14T22:50:21.318Z,101885.56
2023-05-14T22:52:26.800Z,101881.19
2023-05-14T22:54:34.324Z,101884.78
2023-05-14T22:56:41.967Z,101883.00
2023-05-14T22:58:46.987Z,101884.69
2023-05-14T23:00:53.668Z,101892.44
2023-05-14T23:02:59.156Z,101888.97
2023-05-14T23:05:04.404Z,101885.47
2023-05-14T23:07:09.707Z,101879.38
2023-05-14T23:09:14.809Z,101884.50
2023-05-14T23:11:20.047Z,101881.06
2023-05-14T23:13:27.640Z,101881.09
2023-05-14T23:15:35.597Z,101874.13
2023-05-14T23:17:41.541Z,101876.75
2023-05-14T23:19:46.744Z,101875.06
2023-05-14T23:21:55.337Z,101875.13
2023-05-14T23:24:00.276Z,101869.81
2023-05-14T23:26:05.351Z,101872.50
2023-05-14T23:28:10.450Z,101869.03
2023-05-14T23:30:22.526Z,101876.09
2023-05-14T23:32:27.581Z,101863.00
2023-05-14T23:34:36.195Z,101863.00
2023-05-14T23:36:41.403Z,101856.91
2023-05-14T23:38:46.441Z,101856.94
2023-05-14T23:40:52.633Z,101854.38
2023-05-14T23:42:59.632Z,101858.72
2023-05-14T23:45:04.536Z,101863.25
2023-05-14T23:47:12.618Z,101859.84
2023-05-14T23:49:21.275Z,101858.97
2023-05-14T23:51:26.711Z,101859.00
2023-05-14T23:53:31.768Z,101855.50
2023-05-14T23:55:36.768Z,101858.13
2023-05-14T23:57:41.760Z,101849.34
2023-05-14T23:59:47.005Z,101850.34
